To NAV CANADA Home Page Login to a new session Search on AWWS site Disclaimer Vers la page française équivalente Tips FAQ What's new on the site To the Forecasts and Observations / NOTAM section To "File a Flight Plan" website Publications and other links Update of the User's profile FIC Telephone Numbers My Weather Data Folder Route Weather Data Regional Weather Data Local Weather Data To the Forecasts and Observations / NOTAM section
Request Generated 11/13/2018 at 18:04:52 UTC . Weather information available at that time is displayed.

METAR/TAF

TULITA/NT    

METAR CZFN 131800Z 34005KT 3/4SM -SN OVC028 M10/M11 A3003 RMK SN2SC6 SLP182=
SPECI CZFN 131738Z 36007KT 1SM -SN OVC057 M10/M11 A3003 RMK SN2SC6 SLP181=
SPECI CZFN 131717Z 36005KT 3SM -SN OVC048 M10/M11 A3003 RMK SN1SC7 SLP180=
METAR CZFN 131700Z 36005KT 1SM -SN OVC021 M10/M11 A3002 RMK SN2SC6 SLP179=
SPECI CZFN 131621Z 35006KT 3/4SM -SN OVC024 M10/M11 A3002 RMK SN2SC6 SLP177=
METAR CZFN 131600Z 35007KT 1SM -SN OVC030 M10/M11 A3003 RMK SN2SC6 -9.7 /-10.8 / 9.1 / SNW CVR / MUCH LOOSE / SLP180=

CZFN - No TAF is issued for this station

Your time UTC time
Weather data provided by Environment Canada and NAV CANADA